createdAt,value
2023-11-30T00:02:33.125Z,32.26
2023-11-30T00:06:40.858Z,32.78
2023-11-30T00:10:42.172Z,32.57
2023-11-30T00:14:43.501Z,32.96
2023-11-30T00:18:44.863Z,32.91
2023-11-30T00:22:47.886Z,34.29
2023-11-30T00:26:49.312Z,32.71
2023-11-30T00:30:50.730Z,32.63
2023-11-30T00:34:52.260Z,32.71
2023-11-30T00:38:54.894Z,32.68
2023-11-30T00:42:56.274Z,32.63
2023-11-30T00:46:57.753Z,32.51
2023-11-30T00:50:59.169Z,32.30
2023-11-30T00:55:00.555Z,32.39
2023-11-30T00:59:01.894Z,32.38
2023-11-30T01:03:03.263Z,31.94
2023-11-30T01:07:04.852Z,31.89
2023-11-30T01:11:07.321Z,32.03
2023-11-30T01:15:09.294Z,32.50
2023-11-30T01:19:12.354Z,31.96
2023-11-30T01:23:14.091Z,32.08
2023-11-30T01:27:17.087Z,32.71
2023-11-30T01:31:18.737Z,31.70
2023-11-30T01:35:20.035Z,32.19
2023-11-30T01:39:21.420Z,32.98
2023-11-30T01:43:22.944Z,31.90
2023-11-30T01:47:24.524Z,31.97
2023-11-30T01:51:27.521Z,32.21
2023-11-30T01:55:29.032Z,32.35
2023-11-30T01:59:31.632Z,32.62
2023-11-30T02:03:33.505Z,31.81
2023-11-30T02:07:34.900Z,31.87
2023-11-30T02:11:36.293Z,32.74
2023-11-30T02:15:37.594Z,31.78
2023-11-30T02:19:40.634Z,31.90
2023-11-30T02:23:42.029Z,31.35
2023-11-30T02:27:43.365Z,31.32
2023-11-30T02:31:44.835Z,32.68
2023-11-30T02:35:46.376Z,31.66
2023-11-30T02:39:47.677Z,31.47
2023-11-30T02:43:49.057Z,32.48
2023-11-30T02:47:50.536Z,31.27
2023-11-30T02:51:52.023Z,32.09
2023-11-30T02:55:53.370Z,31.55
2023-11-30T02:59:54.738Z,32.21
2023-11-30T03:03:56.077Z,31.88
2023-11-30T03:07:57.465Z,31.89
2023-11-30T03:11:58.907Z,31.67
2023-11-30T03:16:00.318Z,31.32
2023-11-30T03:20:01.622Z,31.17
2023-11-30T03:24:03.243Z,31.27
2023-11-30T03:28:05.338Z,31.45
2023-11-30T03:32:06.768Z,33.66
2023-11-30T03:36:08.748Z,32.13
2023-11-30T03:40:11.220Z,31.60
2023-11-30T03:44:12.561Z,32.25
2023-11-30T03:48:13.937Z,31.75
2023-11-30T03:52:15.314Z,31.41
2023-11-30T03:56:16.726Z,31.01
2023-11-30T04:00:18.561Z,31.74
2023-11-30T04:04:20.038Z,32.44
2023-11-30T04:08:21.702Z,31.98
2023-11-30T04:12:23.170Z,32.27
2023-11-30T04:16:24.514Z,31.03
2023-11-30T04:20:25.934Z,31.79
2023-11-30T04:24:27.315Z,31.44
2023-11-30T04:28:28.647Z,32.26
2023-11-30T04:32:30.061Z,31.49
2023-11-30T04:36:31.607Z,32.18
2023-11-30T04:40:33.257Z,31.79
2023-11-30T04:44:34.603Z,31.69
2023-11-30T04:48:37.220Z,32.34
2023-11-30T04:52:39.503Z,32.38
2023-11-30T04:56:40.854Z,34.07
2023-11-30T05:00:42.902Z,30.94
2023-11-30T05:04:44.374Z,31.34
2023-11-30T05:08:45.729Z,31.72
2023-11-30T05:12:47.112Z,32.33
2023-11-30T05:16:48.598Z,31.69
2023-11-30T05:20:49.970Z,32.65
2023-11-30T05:24:51.455Z,33.30
2023-11-30T05:28:53.235Z,31.82
2023-11-30T05:32:54.739Z,32.86
2023-11-30T05:36:56.240Z,32.12
2023-11-30T05:40:57.657Z,32.52
2023-11-30T05:44:59.276Z,31.94
2023-11-30T05:49:00.786Z,32.26
2023-11-30T05:53:02.795Z,31.74
2023-11-30T05:57:04.385Z,31.21
2023-11-30T06:01:05.980Z,31.63
2023-11-30T06:05:07.802Z,33.37
2023-11-30T06:09:09.211Z,31.68
2023-11-30T06:13:11.689Z,31.60
2023-11-30T06:17:13.274Z,32.55
2023-11-30T06:21:14.673Z,31.82
2023-11-30T06:25:18.098Z,31.44
2023-11-30T06:29:19.949Z,31.64
2023-11-30T06:33:21.318Z,31.13
2023-11-30T06:37:22.643Z,31.50
2023-11-30T06:41:24.134Z,31.24
2023-11-30T06:45:25.497Z,31.88
2023-11-30T06:49:26.835Z,31.54
2023-11-30T06:53:29.905Z,31.01
2023-11-30T06:57:31.349Z,33.31
2023-11-30T07:01:32.870Z,33.04
2023-11-30T07:05:34.214Z,31.71
2023-11-30T07:09:35.796Z,31.20
2023-11-30T07:13:37.283Z,31.59
2023-11-30T07:17:38.720Z,32.37
2023-11-30T07:21:40.515Z,32.58
2023-11-30T07:25:41.874Z,32.09
2023-11-30T07:29:43.189Z,31.77
2023-11-30T07:33:44.541Z,32.25
2023-11-30T07:37:45.871Z,31.92
2023-11-30T07:41:48.579Z,32.94
2023-11-30T07:45:50.011Z,34.25
2023-11-30T07:49:51.500Z,33.28
2023-11-30T07:53:53.333Z,33.72
2023-11-30T07:57:54.644Z,33.35
2023-11-30T08:01:56.044Z,33.18
2023-11-30T08:05:57.350Z,32.92
2023-11-30T08:09:58.690Z,32.93
2023-11-30T08:14:00.138Z,31.57
2023-11-30T08:18:02.011Z,31.17
2023-11-30T08:22:03.617Z,32.72
2023-11-30T08:26:05.249Z,32.48
2023-11-30T08:30:10.767Z,32.24
2023-11-30T08:34:12.281Z,32.04
2023-11-30T08:38:13.841Z,32.30
2023-11-30T08:42:15.546Z,32.81
2023-11-30T08:46:16.989Z,33.80
2023-11-30T08:50:18.441Z,33.07
2023-11-30T08:54:22.325Z,31.85
2023-11-30T08:58:24.155Z,32.70
2023-11-30T09:02:25.668Z,31.83
2023-11-30T09:06:27.181Z,32.72
2023-11-30T09:10:29.368Z,31.53
2023-11-30T09:14:32.106Z,31.17
2023-11-30T09:18:33.592Z,31.11
2023-11-30T09:22:36.403Z,30.72
2023-11-30T09:26:37.818Z,31.30
2023-11-30T09:30:39.170Z,32.98
2023-11-30T09:34:40.534Z,31.20
2023-11-30T09:38:42.249Z,31.03
2023-11-30T09:42:43.738Z,31.05
2023-11-30T09:46:45.838Z,33.51
2023-11-30T09:50:48.241Z,30.04
2023-11-30T09:54:55.192Z,31.16
2023-11-30T09:58:56.832Z,31.60
2023-11-30T10:03:00.078Z,30.52
2023-11-30T10:07:03.323Z,31.59
2023-11-30T10:11:05.123Z,31.26
2023-11-30T10:15:07.065Z,31.10
2023-11-30T10:19:08.831Z,31.89
2023-11-30T10:23:14.343Z,30.90
2023-11-30T10:27:20.348Z,31.54
2023-11-30T10:31:25.493Z,30.42
2023-11-30T10:35:30.479Z,31.28
2023-11-30T10:39:37.617Z,31.96
2023-11-30T10:43:47.166Z,30.97
2023-11-30T10:47:48.997Z,31.45
2023-11-30T10:51:52.594Z,32.89
2023-11-30T10:55:55.447Z,32.58
2023-11-30T11:00:00.829Z,31.84
2023-11-30T11:04:06.894Z,30.08
2023-11-30T11:08:08.431Z,31.58
2023-11-30T11:12:22.485Z,29.64
2023-11-30T11:16:43.951Z,30.31
2023-11-30T11:20:45.400Z,29.92
2023-11-30T11:24:48.350Z,29.15
2023-11-30T11:28:50.356Z,30.26
2023-11-30T11:32:51.768Z,30.58
2023-11-30T11:36:53.439Z,28.85
2023-11-30T11:40:54.887Z,29.05
2023-11-30T11:44:56.486Z,29.29
2023-11-30T11:48:57.914Z,30.21
2023-11-30T11:53:00.867Z,33.89
2023-11-30T11:57:02.773Z,34.01
2023-11-30T12:01:04.353Z,33.62
2023-11-30T12:05:13.372Z,33.88
2023-11-30T12:09:14.762Z,30.86
2023-11-30T12:13:16.220Z,31.71
2023-11-30T12:17:17.559Z,30.72
2023-11-30T12:21:22.376Z,30.81
2023-11-30T12:25:25.874Z,31.83
2023-11-30T12:29:27.205Z,29.96
2023-11-30T12:33:28.661Z,29.17
2023-11-30T12:37:30.059Z,28.85
2023-11-30T12:41:31.634Z,29.00
2023-11-30T12:45:33.040Z,28.66
2023-11-30T12:49:35.861Z,31.25
2023-11-30T12:53:39.520Z,33.55
2023-11-30T12:57:41.113Z,30.32
2023-11-30T13:01:42.586Z,29.80
2023-11-30T13:05:44.078Z,29.01
2023-11-30T13:09:46.045Z,34.05
2023-11-30T13:13:47.924Z,30.02
2023-11-30T13:17:49.581Z,34.04
2023-11-30T13:21:51.749Z,32.72
2023-11-30T13:25:53.168Z,30.90
2023-11-30T13:29:54.616Z,29.89
2023-11-30T13:33:55.999Z,30.26
2023-11-30T13:38:00.251Z,29.05
2023-11-30T13:42:01.898Z,29.22
2023-11-30T13:46:06.763Z,33.65
2023-11-30T13:50:16.829Z,31.54
2023-11-30T13:54:28.170Z,29.98
2023-11-30T13:58:29.704Z,31.76
2023-11-30T14:02:31.028Z,31.94
2023-11-30T14:06:33.213Z,29.53
2023-11-30T14:10:34.638Z,29.29
2023-11-30T14:18:37.863Z,29.47
2023-11-30T14:22:39.288Z,29.19
2023-11-30T14:26:40.796Z,28.45
2023-11-30T14:30:42.269Z,29.88
2023-11-30T14:34:43.702Z,29.00
2023-11-30T14:38:45.383Z,29.41
2023-11-30T14:42:46.842Z,32.06
2023-11-30T14:46:48.239Z,28.16
2023-11-30T14:50:49.849Z,30.42
2023-11-30T14:54:54.001Z,29.25
2023-11-30T14:58:55.578Z,29.75
2023-11-30T15:02:56.916Z,29.48
2023-11-30T15:06:58.397Z,29.76
2023-11-30T15:11:00.314Z,29.69
2023-11-30T15:15:02.153Z,29.46
2023-11-30T15:19:05.012Z,29.19
2023-11-30T15:23:06.381Z,29.38
2023-11-30T15:27:07.912Z,30.96
2023-11-30T15:31:09.814Z,30.56
2023-11-30T15:35:11.285Z,31.08
2023-11-30T15:39:17.136Z,32.46
2023-11-30T15:43:18.529Z,32.87
2023-11-30T15:47:19.942Z,33.22
2023-11-30T15:51:21.333Z,33.03
2023-11-30T15:55:23.795Z,33.37
2023-11-30T15:59:25.539Z,33.56
2023-11-30T16:03:27.001Z,33.34
2023-11-30T16:07:28.389Z,32.36
2023-11-30T16:11:29.759Z,33.36
2023-11-30T16:15:31.149Z,34.08
2023-11-30T16:19:36.534Z,36.38
2023-11-30T16:23:37.852Z,35.80
2023-11-30T16:27:42.235Z,35.61
2023-11-30T16:31:43.668Z,34.98
2023-11-30T16:35:45.184Z,34.92
2023-11-30T16:39:47.305Z,33.70
2023-11-30T16:43:48.651Z,33.15
2023-11-30T16:47:49.975Z,34.25
2023-11-30T16:51:55.590Z,33.50
2023-11-30T16:56:00.996Z,33.96
2023-11-30T17:00:04.399Z,32.06
2023-11-30T17:04:06.267Z,32.26
2023-11-30T17:08:07.777Z,31.30
2023-11-30T17:12:09.181Z,31.35
2023-11-30T17:16:10.800Z,32.99
2023-11-30T17:20:15.288Z,32.72
2023-11-30T17:24:16.669Z,30.67
2023-11-30T17:28:18.223Z,31.22
2023-11-30T17:32:19.735Z,31.89
2023-11-30T17:36:22.365Z,30.75
2023-11-30T17:40:23.824Z,30.82
2023-11-30T17:44:26.366Z,31.20
2023-11-30T17:48:27.809Z,31.21
2023-11-30T17:52:29.634Z,30.79
2023-11-30T17:56:30.991Z,30.83
2023-11-30T18:00:32.430Z,30.95
2023-11-30T18:04:33.781Z,31.48
2023-11-30T18:08:35.195Z,31.62
2023-11-30T18:12:36.879Z,31.70
2023-11-30T18:16:38.371Z,31.83
2023-11-30T18:20:39.824Z,31.93
2023-11-30T18:24:41.271Z,31.99
2023-11-30T18:28:42.710Z,32.94
2023-11-30T18:32:44.211Z,32.02
2023-11-30T18:36:46.076Z,32.26
2023-11-30T18:40:47.479Z,32.50
2023-11-30T18:44:48.916Z,33.44
2023-11-30T18:48:50.294Z,32.59
2023-11-30T18:52:52.630Z,32.28
2023-11-30T18:56:54.099Z,32.06
2023-11-30T19:00:58.182Z,31.98
2023-11-30T19:04:59.581Z,33.05
2023-11-30T19:09:00.917Z,34.39
2023-11-30T19:13:02.321Z,31.88
2023-11-30T19:17:03.798Z,32.28
2023-11-30T19:21:05.327Z,32.79
2023-11-30T19:25:07.613Z,31.99
2023-11-30T19:29:11.323Z,31.80
2023-11-30T19:33:12.686Z,32.06
2023-11-30T19:37:14.130Z,32.87
2023-11-30T19:41:15.544Z,32.19
2023-11-30T19:45:16.846Z,32.82
2023-11-30T19:49:18.365Z,32.26
2023-11-30T19:53:19.682Z,32.34
2023-11-30T19:57:21.235Z,32.82
2023-11-30T20:01:23.216Z,33.75
2023-11-30T20:05:24.592Z,33.29
2023-11-30T20:09:25.921Z,34.17
2023-11-30T20:13:27.372Z,34.77
2023-11-30T20:17:28.740Z,37.71
2023-11-30T20:21:30.163Z,35.63
2023-11-30T20:25:31.516Z,34.98
2023-11-30T20:29:33.003Z,34.29
2023-11-30T20:33:34.422Z,33.47
2023-11-30T20:37:35.909Z,32.98
2023-11-30T20:41:37.285Z,32.41
2023-11-30T20:45:38.777Z,32.23
2023-11-30T20:49:40.098Z,32.41
2023-11-30T20:53:41.427Z,32.90
2023-11-30T20:57:45.455Z,32.67
2023-11-30T21:01:47.208Z,32.75
2023-11-30T21:05:50.024Z,33.07
2023-11-30T21:09:51.665Z,32.89
2023-11-30T21:13:53.648Z,32.66
2023-11-30T21:17:55.100Z,32.57
2023-11-30T21:21:56.560Z,32.75
2023-11-30T21:25:57.983Z,32.58
2023-11-30T21:29:59.799Z,33.37
2023-11-30T21:34:01.212Z,33.67
2023-11-30T21:38:02.751Z,33.07
2023-11-30T21:42:04.384Z,33.79
2023-11-30T21:46:06.260Z,33.20
2023-11-30T21:50:22.848Z,34.02
2023-11-30T21:54:26.453Z,33.50
2023-11-30T21:58:28.254Z,34.03
2023-11-30T22:02:29.708Z,35.63
2023-11-30T22:06:31.421Z,34.74
2023-11-30T22:10:32.791Z,34.58
2023-11-30T22:14:34.336Z,34.00
2023-11-30T22:18:37.330Z,33.86
2023-11-30T22:22:38.812Z,36.14
2023-11-30T22:26:41.725Z,34.72
2023-11-30T22:30:43.107Z,34.21
2023-11-30T22:34:44.787Z,33.93
2023-11-30T22:38:46.655Z,34.22
2023-11-30T22:42:48.099Z,33.78
2023-11-30T22:46:49.637Z,33.99
2023-11-30T22:50:51.043Z,33.97
2023-11-30T22:54:53.344Z,33.91
2023-11-30T22:58:56.507Z,34.66
2023-11-30T23:02:58.908Z,36.37
2023-11-30T23:07:00.543Z,37.23
2023-11-30T23:11:01.949Z,36.87
2023-11-30T23:15:03.618Z,38.66
2023-11-30T23:19:05.025Z,36.49
2023-11-30T23:23:06.601Z,37.09
2023-11-30T23:27:07.929Z,34.73
2023-11-30T23:31:09.357Z,34.36
2023-11-30T23:35:11.005Z,34.84
2023-11-30T23:39:12.369Z,40.47
2023-11-30T23:43:13.897Z,40.73
2023-11-30T23:47:15.319Z,38.67
2023-11-30T23:51:16.703Z,38.88
2023-11-30T23:55:18.959Z,37.55
2023-11-30T23:59:20.332Z,40.54
